Time;durP1;ratioP1;P1;durP2;ratioP2;P2;SDS_P1;SDS_P2;PMS_P1;PMS_P2;Temp;Humidity;BMP_temperature;BMP_pressure;BME280_temperature;BME280_humidity;BME280_pressure;Samples;Min_cycle;Max_cycle;Signal;HPM_P1;HPM_P2
2021/08/30 00:00:00;;;;;;;18.45;11.52;;;;;;;;;;5121448;28;20398;-65
2021/08/30 00:02:28;;;;;;;17.15;11.55;;;;;;;;;;5117664;28;20040;-65
2021/08/30 00:04:55;;;;;;;19.30;11.80;;;;;;;;;;5118926;28;20494;-65
2021/08/30 00:07:21;;;;;;;18.27;10.63;;;;;;;;;;5118474;28;20293;-65
2021/08/30 00:09:47;;;;;;;17.92;10.25;;;;;;;;;;5119588;28;20079;-65
2021/08/30 00:12:14;;;;;;;16.63;10.43;;;;;;;;;;5116213;28;20055;-65
2021/08/30 00:14:40;;;;;;;18.40;10.48;;;;;;;;;;5119700;28;20048;-65
2021/08/30 00:17:08;;;;;;;19.13;11.00;;;;;;;;;;5116661;27;20079;-65
2021/08/30 00:19:34;;;;;;;18.40;10.80;;;;;;;;;;5125536;28;20089;-65
2021/08/30 00:22:01;;;;;;;17.43;10.03;;;;;;;;;;5120190;27;20086;-65
2021/08/30 00:24:27;;;;;;;16.98;10.82;;;;;;;;;;5124191;27;20131;-65
2021/08/30 00:26:54;;;;;;;22.50;12.07;;;;;;;;;;5119357;27;20126;-65
2021/08/30 00:29:25;;;;;;;23.97;12.93;;;;;;;;;;5122156;27;20082;-65
2021/08/30 00:31:52;;;;;;;17.40;11.55;;;;;;;;;;5126756;27;20384;-66
2021/08/30 00:34:18;;;;;;;18.45;11.65;;;;;;;;;;5122318;27;20138;-65
2021/08/30 00:36:45;;;;;;;24.67;13.05;;;;;;;;;;5115838;27;20071;-65
2021/08/30 00:39:12;;;;;;;22.13;12.93;;;;;;;;;;5104899;28;20083;-65
2021/08/30 00:41:38;;;;;;;21.48;12.80;;;;;;;;;;5103976;28;20090;-65
2021/08/30 00:44:05;;;;;;;20.00;12.63;;;;;;;;;;5083263;28;20075;-65
2021/08/30 00:46:31;;;;;;;19.98;12.20;;;;;;;;;;5081384;28;20123;-65
2021/08/30 00:48:58;;;;;;;25.83;12.55;;;;;;;;;;5083084;28;20124;-65
2021/08/30 00:51:24;;;;;;;18.38;11.85;;;;;;;;;;5078884;28;20087;-65
2021/08/30 00:53:51;;;;;;;20.25;10.27;;;;;;;;;;5079470;28;20156;-65
2021/08/30 00:56:17;;;;;;;9.03;6.27;;;;;;;;;;5079617;28;20092;-65
2021/08/30 00:58:45;;;;;;;15.82;9.98;;;;;;;;;;5084325;28;20564;-65
2021/08/30 01:01:11;;;;;;;16.45;9.65;;;;;;;;;;5078180;28;20052;-65
2021/08/30 01:03:39;;;;;;;17.52;10.98;;;;;;;;;;5078927;28;20127;-65
2021/08/30 01:06:13;;;;;;;20.98;11.15;;;;;;;;;;5079679;28;20052;-65
2021/08/30 01:08:44;;;;;;;15.63;9.95;;;;;;;;;;5084273;28;20115;-65
2021/08/30 01:11:14;;;;;;;17.38;10.20;;;;;;;;;;5085789;28;20131;-65
2021/08/30 01:13:46;;;;;;;14.68;9.45;;;;;;;;;;5076482;28;20466;-65
2021/08/30 01:16:13;;;;;;;15.43;8.88;;;;;;;;;;5081202;28;20080;-65
2021/08/30 01:18:43;;;;;;;;;;;;;;;;;;5080113;28;20056;-65
2021/08/30 01:21:23;;;;;;;14.95;9.48;;;;;;;;;;5078881;28;20003;-65
2021/08/30 01:23:55;;;;;;;16.55;9.55;;;;;;;;;;5078116;28;20075;-65
2021/08/30 01:26:24;;;;;;;13.80;9.27;;;;;;;;;;5080297;28;20075;-65
2021/08/30 01:29:14;;;;;;;15.35;9.75;;;;;;;;;;5080423;28;20120;-65
2021/08/30 01:31:50;;;;;;;14.70;9.02;;;;;;;;;;5069429;28;20123;-65
2021/08/30 01:34:17;;;;;;;13.70;8.75;;;;;;;;;;5077937;28;20103;-65
2021/08/30 01:36:45;;;;;;;14.75;8.20;;;;;;;;;;5077389;28;20132;-66
2021/08/30 01:39:12;;;;;;;15.73;8.45;;;;;;;;;;5083394;28;20123;-65
2021/08/30 01:41:38;;;;;;;13.97;9.00;;;;;;;;;;5080444;28;20080;-65
2021/08/30 01:44:06;;;;;;;13.70;8.47;;;;;;;;;;5093284;28;20396;-65
2021/08/30 01:46:33;;;;;;;14.45;8.20;;;;;;;;;;5102532;28;20047;-65
2021/08/30 01:49:01;;;;;;;14.30;9.32;;;;;;;;;;5094037;28;20127;-65
2021/08/30 01:51:28;;;;;;;15.75;9.60;;;;;;;;;;5098207;28;20044;-65
2021/08/30 01:53:55;;;;;;;15.65;9.60;;;;;;;;;;5099445;28;20154;-65
2021/08/30 01:56:23;;;;;;;15.93;8.80;;;;;;;;;;5098820;28;20131;-65
2021/08/30 02:01:36;;;;;;;14.52;7.80;;;;;;;;;;5095698;28;20481;-65
2021/08/30 02:04:04;;;;;;;13.50;8.13;;;;;;;;;;5101781;28;20054;-65
2021/08/30 02:06:31;;;;;;;19.52;9.38;;;;;;;;;;5105602;28;20074;-65
2021/08/30 02:08:58;;;;;;;16.23;10.07;;;;;;;;;;5103517;28;20569;-65
2021/08/30 02:11:30;;;;;;;19.35;11.80;;;;;;;;;;5100101;27;20410;-65
2021/08/30 02:13:58;;;;;;;21.42;9.98;;;;;;;;;;5100082;28;20123;-65
2021/08/30 02:16:25;;;;;;;31.13;12.40;;;;;;;;;;5095397;28;20072;-65
2021/08/30 02:19:07;;;;;;;38.30;11.93;;;;;;;;;;5098831;28;20040;-65
2021/08/30 02:21:40;;;;;;;40.50;13.13;;;;;;;;;;5099580;28;20470;-65
2021/08/30 02:24:12;;;;;;;36.67;14.10;;;;;;;;;;5100244;27;20474;-65
2021/08/30 02:26:42;;;;;;;29.10;13.02;;;;;;;;;;5101965;28;20112;-65
2021/08/30 02:29:10;;;;;;;25.00;12.13;;;;;;;;;;5102614;28;20082;-65
2021/08/30 02:31:38;;;;;;;17.30;8.20;;;;;;;;;;5097272;28;20466;-65
2021/08/30 02:34:04;;;;;;;;;;;;;;;;;;5098206;27;20085;-65
2021/08/30 02:36:31;;;;;;;10.40;6.57;;;;;;;;;;5096733;28;19934;-65
2021/08/30 02:38:58;;;;;;;12.48;8.35;;;;;;;;;;5098134;28;20127;-65
2021/08/30 02:41:25;;;;;;;11.15;6.97;;;;;;;;;;5098765;28;20048;-65
2021/08/30 02:43:52;;;;;;;13.40;7.63;;;;;;;;;;5101018;28;20123;-65
2021/08/30 02:46:19;;;;;;;17.03;8.70;;;;;;;;;;5103234;28;20136;-65
2021/08/30 02:48:46;;;;;;;19.63;9.05;;;;;;;;;;5096405;28;20297;-65
2021/08/30 02:51:13;;;;;;;12.88;7.45;;;;;;;;;;5098052;28;20051;-65
2021/08/30 02:53:40;;;;;;;13.13;7.77;;;;;;;;;;5100369;28;20079;-65
2021/08/30 02:56:06;;;;;;;16.43;9.77;;;;;;;;;;5098856;28;20075;-65
2021/08/30 02:58:33;;;;;;;16.50;10.60;;;;;;;;;;5096989;28;20298;-65
2021/08/30 03:01:00;;;;;;;22.63;10.95;;;;;;;;;;5098069;28;20545;-65
2021/08/30 03:03:27;;;;;;;17.05;10.50;;;;;;;;;;5101381;28;20051;-65
2021/08/30 03:05:55;;;;;;;17.03;10.03;;;;;;;;;;5100968;28;20048;-65
2021/08/30 03:08:22;;;;;;;16.80;10.15;;;;;;;;;;5089187;28;20083;-65
2021/08/30 03:10:48;;;;;;;18.30;11.27;;;;;;;;;;5093279;28;20130;-65
2021/08/30 03:13:15;;;;;;;23.23;11.70;;;;;;;;;;5102648;28;20219;-65
2021/08/30 03:15:44;;;;;;;28.58;14.25;;;;;;;;;;5100118;28;20090;-65
2021/08/30 03:18:11;;;;;;;24.20;13.80;;;;;;;;;;5099646;28;20059;-65
2021/08/30 03:20:38;;;;;;;25.70;13.55;;;;;;;;;;5100829;28;20053;-65
2021/08/30 03:23:05;;;;;;;26.35;12.93;;;;;;;;;;5105233;28;20543;-65
2021/08/30 03:25:32;;;;;;;24.55;12.57;;;;;;;;;;5099771;28;20102;-65
2021/08/30 03:28:00;;;;;;;27.52;12.82;;;;;;;;;;5100786;28;20109;-65
2021/08/30 03:30:27;;;;;;;;;;;;;;;;;;5100968;28;20115;-65
2021/08/30 03:32:55;;;;;;;23.35;11.88;;;;;;;;;;5101916;28;19979;-65
2021/08/30 03:35:22;;;;;;;25.52;12.38;;;;;;;;;;5100401;28;20420;-65
2021/08/30 03:37:49;;;;;;;38.30;14.25;;;;;;;;;;5098862;28;20123;-65
2021/08/30 03:40:16;;;;;;;83.75;15.80;;;;;;;;;;5094967;28;20463;-65
2021/08/30 03:42:43;;;;;;;;;;;;;;;;;;5099603;28;20132;-65
2021/08/30 03:45:11;;;;;;;48.72;14.93;;;;;;;;;;5081402;28;19959;-65
2021/08/30 03:47:38;;;;;;;101.53;19.33;;;;;;;;;;5082416;28;20079;-65
2021/08/30 03:50:07;;;;;;;42.60;17.20;;;;;;;;;;5078913;28;20113;-65
2021/08/30 03:52:34;;;;;;;30.35;15.52;;;;;;;;;;5074355;28;20513;-65
2021/08/30 03:55:01;;;;;;;33.08;14.80;;;;;;;;;;5078271;28;20075;-65
2021/08/30 03:57:28;;;;;;;23.80;13.48;;;;;;;;;;5083567;28;20135;-65
2021/08/30 03:59:56;;;;;;;42.53;18.60;;;;;;;;;;5079790;28;20128;-65
2021/08/30 04:02:23;;;;;;;42.30;18.33;;;;;;;;;;5082464;28;20090;-65
2021/08/30 04:04:51;;;;;;;49.40;21.63;;;;;;;;;;5079367;28;20064;-65
2021/08/30 04:07:18;;;;;;;28.73;16.48;;;;;;;;;;5063569;28;20098;-65
2021/08/30 04:09:45;;;;;;;32.72;15.15;;;;;;;;;;5081995;28;20131;-65
2021/08/30 04:12:11;;;;;;;33.47;15.80;;;;;;;;;;5080037;28;20080;-65
2021/08/30 04:14:38;;;;;;;39.75;18.73;;;;;;;;;;5083798;28;20056;-65
2021/08/30 04:17:05;;;;;;;29.60;15.38;;;;;;;;;;5085455;28;20140;-65
2021/08/30 04:19:32;;;;;;;24.75;14.27;;;;;;;;;;5083430;28;20044;-65
2021/08/30 04:21:58;;;;;;;32.15;15.65;;;;;;;;;;5081204;28;20506;-65
2021/08/30 04:24:25;;;;;;;22.20;12.23;;;;;;;;;;5081621;28;20127;-65
2021/08/30 04:26:51;;;;;;;35.60;16.50;;;;;;;;;;5079771;28;20148;-65
2021/08/30 04:29:18;;;;;;;35.58;17.48;;;;;;;;;;5081257;28;20094;-65
2021/08/30 04:31:45;;;;;;;28.27;15.18;;;;;;;;;;5079806;28;20286;-65
2021/08/30 04:34:12;;;;;;;67.07;20.48;;;;;;;;;;5083360;28;20075;-65
2021/08/30 04:36:38;;;;;;;36.38;18.13;;;;;;;;;;5063599;28;20086;-65
2021/08/30 04:39:05;;;;;;;118.18;25.00;;;;;;;;;;5080974;28;20128;-65
2021/08/30 04:41:31;;;;;;;98.63;24.73;;;;;;;;;;5079282;28;20055;-65
2021/08/30 04:43:59;;;;;;;112.30;23.05;;;;;;;;;;5089471;28;20135;-65
2021/08/30 04:46:25;;;;;;;;;;;;;;;;;;5097554;28;20044;-65
2021/08/30 04:48:52;;;;;;;113.85;27.10;;;;;;;;;;5122868;27;20007;-65
2021/08/30 04:51:18;;;;;;;78.60;24.52;;;;;;;;;;5117414;27;20048;-65
2021/08/30 04:53:45;;;;;;;43.20;19.88;;;;;;;;;;5107133;27;20126;-65
2021/08/30 04:56:12;;;;;;;47.10;20.52;;;;;;;;;;5118997;27;20482;-65
2021/08/30 04:58:39;;;;;;;42.90;20.30;;;;;;;;;;5119570;27;20098;-65
2021/08/30 05:01:05;;;;;;;33.37;17.80;;;;;;;;;;5119801;27;20075;-65
2021/08/30 05:03:32;;;;;;;36.60;18.70;;;;;;;;;;5122510;27;20051;-65
2021/08/30 05:05:59;;;;;;;31.47;16.10;;;;;;;;;;5122859;27;20464;-65
2021/08/30 05:08:26;;;;;;;30.60;17.60;;;;;;;;;;5117148;27;20075;-65
2021/08/30 05:10:52;;;;;;;31.15;17.48;;;;;;;;;;5119645;27;20307;-65
2021/08/30 05:13:19;;;;;;;32.67;18.02;;;;;;;;;;5122017;27;20170;-65
2021/08/30 05:15:45;;;;;;;34.97;18.50;;;;;;;;;;5117207;27;20166;-65
2021/08/30 05:18:12;;;;;;;37.90;19.90;;;;;;;;;;5116473;27;20297;-65
2021/08/30 05:20:39;;;;;;;29.33;15.67;;;;;;;;;;5119066;27;20074;-65
2021/08/30 05:23:05;;;;;;;39.83;18.58;;;;;;;;;;5122373;27;20090;-65
2021/08/30 05:25:32;;;;;;;28.30;15.95;;;;;;;;;;5117535;27;20046;-65
2021/08/30 05:27:59;;;;;;;29.92;17.33;;;;;;;;;;5125517;27;20130;-65
2021/08/30 05:30:25;;;;;;;27.70;15.80;;;;;;;;;;5121166;27;20107;-65
2021/08/30 05:32:52;;;;;;;27.58;15.27;;;;;;;;;;5116613;27;20090;-65
2021/08/30 05:35:19;;;;;;;24.35;16.13;;;;;;;;;;5122942;27;20108;-65
2021/08/30 05:37:45;;;;;;;24.45;14.45;;;;;;;;;;5118599;27;20063;-65
2021/08/30 05:40:12;;;;;;;22.33;14.35;;;;;;;;;;5117969;27;20078;-65
2021/08/30 05:42:39;;;;;;;23.00;15.47;;;;;;;;;;5121856;27;20447;-65
2021/08/30 05:45:06;;;;;;;31.75;16.33;;;;;;;;;;5120185;27;20377;-65
2021/08/30 05:47:32;;;;;;;33.75;17.95;;;;;;;;;;5113940;27;20127;-65
2021/08/30 05:49:59;;;;;;;31.67;17.60;;;;;;;;;;5116964;27;20135;-65
2021/08/30 05:52:25;;;;;;;29.90;17.38;;;;;;;;;;5121049;27;20137;-65
2021/08/30 05:54:52;;;;;;;29.35;14.85;;;;;;;;;;5122838;27;20475;-65
2021/08/30 05:57:19;;;;;;;25.02;15.77;;;;;;;;;;5116608;27;20044;-65
2021/08/30 05:59:45;;;;;;;24.20;15.30;;;;;;;;;;5119540;27;20136;-65
2021/08/30 06:02:12;;;;;;;25.58;15.23;;;;;;;;;;5115165;27;20163;-65
2021/08/30 06:04:39;;;;;;;23.63;15.40;;;;;;;;;;5122956;27;20043;-65
2021/08/30 06:07:05;;;;;;;28.00;16.33;;;;;;;;;;5116386;27;20425;-65
2021/08/30 06:09:32;;;;;;;33.42;17.85;;;;;;;;;;5118352;27;20138;-65
2021/08/30 06:11:58;;;;;;;21.83;14.30;;;;;;;;;;5117425;27;20179;-65
2021/08/30 06:14:26;;;;;;;21.98;14.23;;;;;;;;;;5120161;27;20081;-65
2021/08/30 06:16:52;;;;;;;31.42;17.20;;;;;;;;;;5117745;27;20123;-65
2021/08/30 06:19:19;;;;;;;26.30;15.15;;;;;;;;;;5120777;27;20130;-65
2021/08/30 06:21:45;;;;;;;24.45;14.95;;;;;;;;;;5118947;27;20137;-65
2021/08/30 06:24:12;;;;;;;26.08;15.93;;;;;;;;;;5122319;27;20145;-65
2021/08/30 06:26:39;;;;;;;27.38;17.02;;;;;;;;;;5122990;27;20050;-65
2021/08/30 06:29:05;;;;;;;23.77;15.02;;;;;;;;;;5116850;27;20126;-65
2021/08/30 06:31:32;;;;;;;30.25;17.08;;;;;;;;;;5119034;27;20137;-65
2021/08/30 06:33:59;;;;;;;39.60;17.08;;;;;;;;;;5117027;27;20082;-65
2021/08/30 06:36:25;;;;;;;36.22;18.83;;;;;;;;;;5116594;27;20385;-65
2021/08/30 06:38:52;;;;;;;25.60;16.83;;;;;;;;;;5120533;27;20181;-65
2021/08/30 06:41:18;;;;;;;41.88;17.27;;;;;;;;;;5115770;27;20048;-65
2021/08/30 06:43:45;;;;;;;21.27;14.30;;;;;;;;;;5115386;27;20593;-65
2021/08/30 06:46:11;;;;;;;25.53;15.60;;;;;;;;;;5117286;27;20122;-65
2021/08/30 06:48:40;;;;;;;29.60;16.10;;;;;;;;;;5118943;27;20406;-65
2021/08/30 06:51:07;;;;;;;26.48;14.48;;;;;;;;;;5113295;27;20079;-65
2021/08/30 06:53:33;;;;;;;24.73;14.68;;;;;;;;;;5118213;27;20079;-65
2021/08/30 06:56:00;;;;;;;35.47;15.27;;;;;;;;;;5116894;27;20089;-65
2021/08/30 06:58:26;;;;;;;21.48;13.82;;;;;;;;;;5116614;27;20502;-65
2021/08/30 07:00:53;;;;;;;21.73;13.55;;;;;;;;;;5122573;27;20067;-65
2021/08/30 07:03:20;;;;;;;21.87;13.93;;;;;;;;;;5118930;27;20057;-65
2021/08/30 07:05:46;;;;;;;20.70;13.32;;;;;;;;;;5114915;27;20124;-65
2021/08/30 07:08:13;;;;;;;17.38;12.07;;;;;;;;;;5120361;27;20076;-65
2021/08/30 07:10:39;;;;;;;20.90;13.15;;;;;;;;;;5117503;27;20489;-65
2021/08/30 07:13:06;;;;;;;19.63;13.23;;;;;;;;;;5114552;28;20055;-65
2021/08/30 07:15:33;;;;;;;21.87;13.90;;;;;;;;;;5114264;28;20093;-65
2021/08/30 07:17:59;;;;;;;17.08;12.43;;;;;;;;;;5120093;28;20051;-65
2021/08/30 07:20:27;;;;;;;15.75;11.32;;;;;;;;;;5114412;28;20048;-65
2021/08/30 07:22:54;;;;;;;16.15;11.95;;;;;;;;;;5120367;28;20083;-65
2021/08/30 07:25:20;;;;;;;17.63;12.10;;;;;;;;;;5116533;28;20075;-65
2021/08/30 07:27:46;;;;;;;16.05;11.00;;;;;;;;;;5120834;27;20074;-65
2021/08/30 07:30:13;;;;;;;16.42;11.50;;;;;;;;;;5121367;27;20096;-65
2021/08/30 07:32:39;;;;;;;15.55;11.77;;;;;;;;;;5122067;27;20467;-65
2021/08/30 07:35:06;;;;;;;16.33;11.48;;;;;;;;;;5123329;27;20083;-65
2021/08/30 07:37:33;;;;;;;19.23;11.50;;;;;;;;;;5122859;27;20047;-65
2021/08/30 07:39:59;;;;;;;15.18;9.93;;;;;;;;;;5118584;27;20048;-65
2021/08/30 07:42:25;;;;;;;13.63;9.93;;;;;;;;;;5119162;27;20484;-65
2021/08/30 07:44:52;;;;;;;14.25;10.40;;;;;;;;;;5119725;27;20164;-65
2021/08/30 07:47:19;;;;;;;12.23;9.57;;;;;;;;;;5122060;27;20048;-65
2021/08/30 07:49:45;;;;;;;13.77;9.60;;;;;;;;;;5123640;27;20042;-66
2021/08/30 07:52:12;;;;;;;13.20;9.60;;;;;;;;;;5118470;27;20047;-66
2021/08/30 07:54:38;;;;;;;12.10;9.33;;;;;;;;;;5116852;27;20130;-65
2021/08/30 07:57:05;;;;;;;15.60;9.63;;;;;;;;;;5118895;27;20126;-65
2021/08/30 07:59:31;;;;;;;12.98;9.32;;;;;;;;;;5118410;27;20082;-66
2021/08/30 08:01:59;;;;;;;12.77;9.70;;;;;;;;;;5125056;27;20051;-66
2021/08/30 08:04:25;;;;;;;13.65;9.63;;;;;;;;;;5114063;27;20055;-66
2021/08/30 08:06:52;;;;;;;12.80;9.68;;;;;;;;;;5125298;27;20143;-65
2021/08/30 08:09:20;;;;;;;14.82;9.23;;;;;;;;;;5099551;28;20048;-65
2021/08/30 08:11:47;;;;;;;11.48;8.57;;;;;;;;;;5100063;28;20055;-65
2021/08/30 08:14:13;;;;;;;10.95;8.40;;;;;;;;;;5103451;28;20415;-65
2021/08/30 08:16:40;;;;;;;11.35;7.30;;;;;;;;;;5097223;28;20100;-65
2021/08/30 08:19:06;;;;;;;10.70;7.88;;;;;;;;;;5097259;28;20083;-65
2021/08/30 08:21:34;;;;;;;10.25;7.13;;;;;;;;;;5099256;28;20051;-65
2021/08/30 08:24:01;;;;;;;12.25;7.15;;;;;;;;;;5102316;28;20074;-65
2021/08/30 08:26:28;;;;;;;12.25;6.32;;;;;;;;;;5101233;28;20139;-65
2021/08/30 08:28:54;;;;;;;7.40;5.95;;;;;;;;;;5099845;27;20469;-65
2021/08/30 08:31:21;;;;;;;10.70;6.07;;;;;;;;;;5103916;28;20070;-66
2021/08/30 08:33:49;;;;;;;8.93;6.77;;;;;;;;;;5094386;28;20075;-65
2021/08/30 08:36:16;;;;;;;7.55;5.95;;;;;;;;;;5098667;28;20052;-65
2021/08/30 08:38:43;;;;;;;8.15;5.85;;;;;;;;;;5101597;28;20071;-65
2021/08/30 08:41:09;;;;;;;8.02;5.78;;;;;;;;;;5099843;28;20472;-65
2021/08/30 08:43:35;;;;;;;7.40;5.93;;;;;;;;;;5099485;27;20575;-65
2021/08/30 08:46:02;;;;;;;12.75;6.28;;;;;;;;;;5101116;28;20082;-65
2021/08/30 08:48:29;;;;;;;8.05;5.70;;;;;;;;;;5094314;28;20127;-65
2021/08/30 08:50:55;;;;;;;9.60;5.82;;;;;;;;;;5099522;28;20126;-65
2021/08/30 08:53:22;;;;;;;8.27;5.40;;;;;;;;;;5100404;28;20079;-65
2021/08/30 08:55:48;;;;;;;9.07;5.53;;;;;;;;;;5119654;27;20082;-65
2021/08/30 08:58:16;;;;;;;7.10;4.75;;;;;;;;;;5117407;27;20134;-65
2021/08/30 09:00:44;;;;;;;6.57;4.57;;;;;;;;;;5120087;27;20131;-65
2021/08/30 09:03:18;;;;;;;7.70;4.50;;;;;;;;;;5117842;27;20451;-66
2021/08/30 09:05:45;;;;;;;6.07;3.72;;;;;;;;;;5123185;27;20074;-65
2021/08/30 09:08:32;;;;;;;4.75;3.92;;;;;;;;;;5122230;27;20079;-65
2021/08/30 09:10:59;;;;;;;5.78;4.63;;;;;;;;;;5117035;27;20044;-65
2021/08/30 09:13:30;;;;;;;7.75;4.88;;;;;;;;;;5119999;27;20054;-65
2021/08/30 09:15:59;;;;;;;8.93;5.10;;;;;;;;;;5117635;27;20339;-65
2021/08/30 09:18:29;;;;;;;6.38;5.03;;;;;;;;;;5126299;27;20105;-65
2021/08/30 09:20:56;;;;;;;9.13;5.32;;;;;;;;;;5115527;27;20078;-65
2021/08/30 09:23:27;;;;;;;6.00;4.75;;;;;;;;;;5118313;27;20146;-66
2021/08/30 09:25:58;;;;;;;7.28;5.18;;;;;;;;;;5118608;27;20138;-66
2021/08/30 09:28:33;;;;;;;9.02;5.03;;;;;;;;;;5126114;27;20131;-66
2021/08/30 09:31:01;;;;;;;9.73;5.30;;;;;;;;;;5119713;27;20501;-65
2021/08/30 09:33:28;;;;;;;7.47;5.07;;;;;;;;;;5120508;27;20085;-66
2021/08/30 09:35:55;;;;;;;7.80;5.40;;;;;;;;;;5118169;27;20130;-65
2021/08/30 09:38:22;;;;;;;10.48;5.38;;;;;;;;;;5120928;27;20267;-65
2021/08/30 09:40:49;;;;;;;7.82;5.43;;;;;;;;;;5121527;27;20094;-65
2021/08/30 09:43:20;;;;;;;6.87;4.90;;;;;;;;;;5114308;27;20366;-66
2021/08/30 09:45:47;;;;;;;5.80;4.82;;;;;;;;;;5116349;27;20865;-65
2021/08/30 09:48:22;;;;;;;10.43;5.20;;;;;;;;;;5121293;27;20054;-65
2021/08/30 09:50:49;;;;;;;6.47;5.07;;;;;;;;;;5120668;27;20078;-66
2021/08/30 09:53:15;;;;;;;6.70;4.75;;;;;;;;;;5120823;27;20132;-65
2021/08/30 09:55:42;;;;;;;9.23;4.80;;;;;;;;;;5119408;27;20135;-65
2021/08/30 09:58:13;;;;;;;9.18;5.53;;;;;;;;;;5096692;28;20143;-65
2021/08/30 10:00:41;;;;;;;8.07;5.20;;;;;;;;;;5101327;28;20960;-65
2021/08/30 10:03:08;;;;;;;9.75;5.07;;;;;;;;;;5118635;27;20382;-65
2021/08/30 10:05:36;;;;;;;;;;;;;;;;;;5115915;27;20132;-65
2021/08/30 10:08:03;;;;;;;8.77;4.90;;;;;;;;;;5115751;27;19927;-65
2021/08/30 10:10:30;;;;;;;7.35;5.10;;;;;;;;;;5120853;27;20075;-65
2021/08/30 10:12:56;;;;;;;6.72;4.35;;;;;;;;;;5122404;27;20047;-65
2021/08/30 10:15:26;;;;;;;8.00;5.30;;;;;;;;;;5122613;27;20048;-65
2021/08/30 10:17:53;;;;;;;6.90;5.25;;;;;;;;;;5116457;27;20126;-65
2021/08/30 10:20:25;;;;;;;6.35;4.70;;;;;;;;;;5119145;27;20415;-65
2021/08/30 10:23:05;;;;;;;9.52;4.65;;;;;;;;;;5122739;27;20545;-65
2021/08/30 10:25:32;;;;;;;5.80;4.40;;;;;;;;;;5121829;27;20051;-65
2021/08/30 10:27:59;;;;;;;;;;;;;;;;;;5116214;27;20126;-65
2021/08/30 10:30:25;;;;;;;5.88;4.47;;;;;;;;;;5123401;27;20505;-66
2021/08/30 10:32:54;;;;;;;8.00;4.80;;;;;;;;;;5115425;27;20079;-65
2021/08/30 10:35:22;;;;;;;8.93;4.93;;;;;;;;;;5120199;27;20802;-65
2021/08/30 10:37:50;;;;;;;7.28;4.93;;;;;;;;;;5116253;27;20127;-65
2021/08/30 10:40:19;;;;;;;9.25;5.10;;;;;;;;;;5114386;27;20122;-65
2021/08/30 10:42:55;;;;;;;6.53;4.28;;;;;;;;;;5115409;27;20122;-65
2021/08/30 10:45:29;;;;;;;5.32;4.28;;;;;;;;;;5116762;27;20051;-66
2021/08/30 10:48:00;;;;;;;9.40;4.50;;;;;;;;;;5113486;27;20123;-65
2021/08/30 10:50:27;;;;;;;7.75;4.15;;;;;;;;;;5121463;27;20134;-65
2021/08/30 10:53:04;;;;;;;5.40;4.18;;;;;;;;;;5114290;27;20078;-65
2021/08/30 10:55:39;;;;;;;7.78;4.47;;;;;;;;;;5120534;27;20112;-65
2021/08/30 10:58:10;;;;;;;5.85;4.35;;;;;;;;;;5120004;27;20083;-65
2021/08/30 11:00:36;;;;;;;7.95;4.32;;;;;;;;;;5116473;27;20060;-65
2021/08/30 11:03:03;;;;;;;9.02;4.30;;;;;;;;;;5119370;27;20051;-65
2021/08/30 11:05:30;;;;;;;6.15;4.18;;;;;;;;;;5117817;27;20082;-65
2021/08/30 11:07:57;;;;;;;5.82;4.18;;;;;;;;;;5120907;27;20055;-65
2021/08/30 11:10:25;;;;;;;4.78;3.70;;;;;;;;;;5113434;28;20130;-65
2021/08/30 11:12:53;;;;;;;4.90;4.00;;;;;;;;;;5113947;28;20063;-65
2021/08/30 11:15:21;;;;;;;8.85;4.40;;;;;;;;;;5119743;28;20459;-65
2021/08/30 11:17:47;;;;;;;6.50;4.40;;;;;;;;;;5115952;28;20051;-66
2021/08/30 11:20:17;;;;;;;5.75;4.68;;;;;;;;;;5119803;28;20075;-65
2021/08/30 11:22:51;;;;;;;5.40;4.00;;;;;;;;;;5117971;28;20079;-65
2021/08/30 11:25:18;;;;;;;6.13;4.07;;;;;;;;;;5120305;28;20055;-65
2021/08/30 11:27:44;;;;;;;5.83;4.40;;;;;;;;;;5119196;27;20123;-65
2021/08/30 11:30:13;;;;;;;5.47;4.57;;;;;;;;;;5117258;27;20135;-65
2021/08/30 11:32:40;;;;;;;9.32;4.32;;;;;;;;;;5113212;27;20071;-65
2021/08/30 11:35:12;;;;;;;9.07;4.00;;;;;;;;;;5114931;27;20079;-65
2021/08/30 11:37:39;;;;;;;6.07;4.18;;;;;;;;;;5118774;27;20134;-65
2021/08/30 11:40:11;;;;;;;5.80;3.80;;;;;;;;;;5117922;27;20068;-65
2021/08/30 11:42:38;;;;;;;5.03;3.70;;;;;;;;;;5116128;28;20079;-66
2021/08/30 11:45:09;;;;;;;9.35;4.03;;;;;;;;;;5119154;27;20130;-66
2021/08/30 11:47:36;;;;;;;7.95;3.45;;;;;;;;;;5123739;27;20085;-65
2021/08/30 11:50:04;;;;;;;5.57;3.85;;;;;;;;;;5117417;27;20047;-65
2021/08/30 11:52:32;;;;;;;4.90;3.95;;;;;;;;;;5117308;27;20158;-65
2021/08/30 11:55:01;;;;;;;5.97;3.72;;;;;;;;;;5113366;27;20072;-65
2021/08/30 11:57:37;;;;;;;5.55;3.97;;;;;;;;;;5115613;27;20131;-65
2021/08/30 12:00:04;;;;;;;6.28;4.35;;;;;;;;;;5112545;27;20126;-65
2021/08/30 12:02:33;;;;;;;6.63;4.32;;;;;;;;;;5118884;27;20079;-65
2021/08/30 12:05:01;;;;;;;6.80;3.38;;;;;;;;;;5115461;27;20051;-65
2021/08/30 12:07:27;;;;;;;;;;;;;;;;;;5115177;28;20130;-65
2021/08/30 12:09:55;;;;;;;4.93;3.75;;;;;;;;;;5117454;28;19952;-65
2021/08/30 12:12:28;;;;;;;6.93;3.70;;;;;;;;;;5107247;28;20051;-65
2021/08/30 12:14:57;;;;;;;7.47;4.03;;;;;;;;;;5118743;27;20130;-65
2021/08/30 12:17:24;;;;;;;5.90;4.00;;;;;;;;;;5119418;27;20120;-65
2021/08/30 12:19:52;;;;;;;4.47;3.47;;;;;;;;;;5123861;27;20086;-65
2021/08/30 12:22:26;;;;;;;4.88;3.92;;;;;;;;;;5120083;27;20090;-65
2021/08/30 12:25:18;;;;;;;6.15;3.40;;;;;;;;;;5122308;27;20083;-65
2021/08/30 12:27:46;;;;;;;7.43;4.07;;;;;;;;;;5120305;27;20131;-65
2021/08/30 12:30:17;;;;;;;6.45;3.90;;;;;;;;;;5123688;27;20139;-65
2021/08/30 12:32:53;;;;;;;5.40;3.40;;;;;;;;;;5118920;27;20071;-65
2021/08/30 12:35:23;;;;;;;4.90;3.38;;;;;;;;;;5121324;27;20047;-65
2021/08/30 12:37:51;;;;;;;6.40;4.32;;;;;;;;;;5115954;27;20139;-65
2021/08/30 12:40:17;;;;;;;;;;;;;;;;;;5125474;27;20047;-65
2021/08/30 12:42:44;;;;;;;5.97;3.40;;;;;;;;;;5119858;27;19920;-65
2021/08/30 12:45:11;;;;;;;5.90;3.57;;;;;;;;;;5118281;27;20135;-65
2021/08/30 12:47:37;;;;;;;5.65;3.78;;;;;;;;;;5126960;27;20368;-65
2021/08/30 12:50:05;;;;;;;7.28;3.88;;;;;;;;;;5120538;27;20078;-66
2021/08/30 12:52:31;;;;;;;7.27;3.87;;;;;;;;;;5127920;27;20101;-65
2021/08/30 12:54:58;;;;;;;4.90;3.80;;;;;;;;;;5119899;27;20129;-65
2021/08/30 12:57:24;;;;;;;5.63;3.70;;;;;;;;;;5119355;27;20472;-65
2021/08/30 12:59:51;;;;;;;7.25;4.15;;;;;;;;;;5117000;27;20123;-65
2021/08/30 13:02:17;;;;;;;5.53;3.72;;;;;;;;;;5119503;27;20089;-65
2021/08/30 13:04:44;;;;;;;5.28;3.70;;;;;;;;;;5121670;27;20054;-65
2021/08/30 13:07:11;;;;;;;5.70;3.75;;;;;;;;;;5121202;27;20074;-65
2021/08/30 13:09:37;;;;;;;6.03;3.97;;;;;;;;;;5119157;27;20054;-65
2021/08/30 13:12:04;;;;;;;6.23;3.57;;;;;;;;;;5120476;27;20096;-65
2021/08/30 13:14:30;;;;;;;4.27;3.57;;;;;;;;;;5124607;27;20078;-65
2021/08/30 13:16:57;;;;;;;10.93;4.28;;;;;;;;;;5121882;27;20130;-65
2021/08/30 13:19:24;;;;;;;4.50;3.38;;;;;;;;;;5118444;27;20123;-65
2021/08/30 13:21:50;;;;;;;4.55;3.38;;;;;;;;;;5117229;27;20126;-65
2021/08/30 13:24:16;;;;;;;5.72;3.72;;;;;;;;;;5122874;27;20065;-65
2021/08/30 13:26:43;;;;;;;5.65;3.60;;;;;;;;;;5119715;27;20086;-65
2021/08/30 13:29:10;;;;;;;5.03;3.45;;;;;;;;;;5120739;27;20051;-65
2021/08/30 13:31:37;;;;;;;5.10;3.30;;;;;;;;;;5121823;27;20055;-65
2021/08/30 13:34:04;;;;;;;5.33;3.83;;;;;;;;;;5114757;27;20083;-65
2021/08/30 13:36:30;;;;;;;4.93;3.45;;;;;;;;;;5120359;27;20485;-65
2021/08/30 13:38:56;;;;;;;5.35;3.90;;;;;;;;;;5117032;27;20080;-66
2021/08/30 13:41:24;;;;;;;;;;;;;;;;;;5114927;27;20126;-65
2021/08/30 13:43:52;;;;;;;6.50;3.92;;;;;;;;;;5120735;27;19963;-65
2021/08/30 13:46:19;;;;;;;5.38;3.78;;;;;;;;;;5121141;27;20074;-65
2021/08/30 13:48:46;;;;;;;5.75;3.83;;;;;;;;;;5116769;27;20593;-65
2021/08/30 13:51:13;;;;;;;5.20;3.70;;;;;;;;;;5116895;27;20043;-65
2021/08/30 13:53:39;;;;;;;5.60;3.80;;;;;;;;;;5118552;27;20138;-65
2021/08/30 13:56:06;;;;;;;4.83;3.43;;;;;;;;;;5125290;27;20047;-65
2021/08/30 13:58:32;;;;;;;7.32;3.75;;;;;;;;;;5097606;27;20150;-65
2021/08/30 14:01:12;;;;;;;7.63;3.80;;;;;;;;;;5118755;27;20043;-65
2021/08/30 14:03:39;;;;;;;5.90;3.97;;;;;;;;;;5112727;27;20479;-65
2021/08/30 14:06:05;;;;;;;5.30;3.93;;;;;;;;;;5120463;27;20566;-65
2021/08/30 14:08:34;;;;;;;5.65;3.97;;;;;;;;;;5115400;27;20043;-65
2021/08/30 14:11:13;;;;;;;6.03;4.20;;;;;;;;;;5113642;27;20178;-65
2021/08/30 14:13:41;;;;;;;6.43;3.58;;;;;;;;;;5111977;27;20566;-65
2021/08/30 14:16:15;;;;;;;5.25;3.70;;;;;;;;;;5103793;27;20047;-65
2021/08/30 14:18:41;;;;;;;4.50;3.90;;;;;;;;;;5115593;27;20101;-65
2021/08/30 14:21:08;;;;;;;5.43;4.20;;;;;;;;;;5110125;27;20075;-65
2021/08/30 14:23:35;;;;;;;5.18;3.97;;;;;;;;;;5116192;27;20466;-65
2021/08/30 14:26:02;;;;;;;6.53;4.10;;;;;;;;;;5121579;27;20079;-65
2021/08/30 14:28:28;;;;;;;6.90;3.97;;;;;;;;;;5118977;27;20051;-65
2021/08/30 14:30:55;;;;;;;6.28;4.03;;;;;;;;;;5115861;27;20167;-65
2021/08/30 14:33:21;;;;;;;5.17;3.93;;;;;;;;;;5121608;27;20236;-65
2021/08/30 14:36:02;;;;;;;6.18;3.85;;;;;;;;;;5114599;27;20047;-65
2021/08/30 14:38:29;;;;;;;5.13;3.83;;;;;;;;;;5116368;27;20138;-66